Time;durP1;ratioP1;P1;durP2;ratioP2;P2;SDS_P1;SDS_P2;PMS_P1;PMS_P2;Temp;Humidity;BMP_temperature;BMP_pressure;BME280_temperature;BME280_humidity;BME280_pressure;Samples;Min_cycle;Max_cycle;Signal;HPM_P1;HPM_P2
2022/12/25 21:23:28;;;;;;;5.50;5.00;;;;;;;1.40;100.00;100546.38;1806507;78;22744;-58
2022/12/25 21:25:54;;;;;;;7.20;6.60;;;;;;;1.40;100.00;100568.03;1777405;79;21481;-58
2022/12/25 21:28:21;;;;;;;7.03;6.43;;;;;;;1.39;100.00;100575.10;1779156;79;21863;-58
2022/12/25 21:30:48;;;;;;;6.80;6.17;;;;;;;1.37;100.00;100575.53;1782417;78;21087;-58
2022/12/25 21:36:31;;;;;;;8.83;5.87;;;;;;;1.30;100.00;100558.28;1773054;78;26447;-57
2022/12/25 21:39:02;;;;;;;10.73;6.90;;;;;;;1.26;100.00;100577.30;1748200;80;20986;-60
2022/12/25 21:41:29;;;;;;;13.23;6.27;;;;;;;1.24;100.00;100575.52;1749564;80;21851;-59
2022/12/25 21:43:56;;;;;;;9.27;6.53;;;;;;;1.21;100.00;100575.50;1744768;80;20963;-59
2022/12/25 21:46:22;;;;;;;8.00;6.47;;;;;;;1.22;100.00;100571.97;1745685;80;21421;-59
2022/12/25 21:48:49;;;;;;;6.80;5.83;;;;;;;1.27;100.00;100578.19;1756621;80;20961;-59
2022/12/25 21:54:12;;;;;;;6.73;5.30;;;;;;;1.31;100.00;100575.97;1748953;80;21856;-59
2022/12/25 21:56:41;;;;;;;8.07;5.40;;;;;;;1.34;100.00;100574.22;1707924;81;20998;-59
2022/12/25 21:59:08;;;;;;;8.47;5.40;;;;;;;1.36;100.00;100571.11;1718298;81;21021;-59
2022/12/25 22:01:35;;;;;;;6.93;5.47;;;;;;;1.36;100.00;100570.25;1716503;81;21005;-59
2022/12/25 22:04:05;;;;;;;5.87;5.27;;;;;;;1.36;100.00;100566.27;1721287;81;21083;-59
2022/12/25 22:09:19;;;;;;;4.53;4.13;;;;;;;1.35;100.00;100558.75;1694102;83;21479;-59
2022/12/25 22:14:50;;;;;;;5.57;4.07;;;;;;;1.40;100.00;100559.63;1700445;83;21446;-59
2022/12/25 22:20:19;;;;;;;30.17;13.90;;;;;;;1.32;100.00;100553.44;1697401;83;21827;-59
2022/12/25 22:22:48;;;;;;;32.90;15.70;;;;;;;1.32;100.00;100558.73;1702758;83;21078;-58
2022/12/25 22:25:14;;;;;;;21.93;11.50;;;;;;;1.31;100.00;100552.09;1698369;83;21579;-59
2022/12/25 22:27:42;;;;;;;17.97;10.40;;;;;;;1.31;100.00;100550.33;1697022;83;21097;-59
2022/12/25 22:30:20;;;;;;;16.47;9.80;;;;;;;1.34;100.00;100558.31;1701516;83;21100;-59
2022/12/25 22:32:46;;;;;;;7.40;5.37;;;;;;;1.35;100.00;100551.23;1695474;83;21860;-58
2022/12/25 22:35:15;;;;;;;6.10;4.53;;;;;;;1.36;100.00;100542.41;1694799;83;21102;-58
2022/12/25 22:37:41;;;;;;;6.17;4.40;;;;;;;1.35;100.00;100541.95;1684949;84;22189;-58
2022/12/25 22:40:11;;;;;;;11.07;9.07;;;;;;;1.35;100.00;100544.61;1681123;84;21133;-59
2022/12/25 22:42:37;;;;;;;8.30;7.00;;;;;;;1.36;100.00;100552.54;1685361;84;21038;-59
2022/12/25 22:45:04;;;;;;;6.57;4.93;;;;;;;1.37;100.00;100560.95;1680237;84;21880;-58
2022/12/25 22:47:31;;;;;;;5.27;4.83;;;;;;;1.40;100.00;100564.05;1681741;84;21071;-59
2022/12/25 22:49:58;;;;;;;7.07;4.47;;;;;;;1.41;100.00;100569.80;1686609;84;21086;-59
2022/12/25 22:52:24;;;;;;;5.40;3.60;;;;;;;1.43;100.00;100566.28;1676302;84;21787;-58
2022/12/25 22:54:50;;;;;;;6.20;4.97;;;;;;;1.44;100.00;100568.06;1684362;84;21121;-59
2022/12/25 22:57:17;;;;;;;5.30;4.80;;;;;;;1.47;100.00;100573.34;1678153;84;21835;-59
2022/12/25 22:59:43;;;;;;;6.97;4.77;;;;;;;1.50;100.00;100578.67;1655562;85;21684;-58
2022/12/25 23:02:09;;;;;;;6.90;5.37;;;;;;;1.51;100.00;100579.56;1656979;84;21049;-59
2022/12/25 23:04:36;;;;;;;5.90;5.23;;;;;;;1.50;100.00;100577.34;1714848;82;20991;-58
2022/12/25 23:07:03;;;;;;;4.97;4.20;;;;;;;1.49;100.00;100577.34;1713529;82;21485;-59
2022/12/25 23:09:30;;;;;;;6.50;4.83;;;;;;;1.48;100.00;100584.41;1715752;82;21811;-58
2022/12/25 23:11:57;;;;;;;5.73;4.93;;;;;;;1.47;100.00;100581.31;1707635;82;21057;-59
2022/12/25 23:14:40;;;;;;;6.57;4.20;;;;;;;1.46;100.00;100582.19;1662055;85;21605;-58
2022/12/25 23:26:06;;;;;;;5.77;4.90;;;;;;;1.47;100.00;100577.77;1672248;84;21096;-59
2022/12/25 23:27:56;;;;;;;6.30;4.23;;;;;;;1.51;100.00;100588.41;1660363;84;21096;-59
2022/12/25 23:30:22;;;;;;;6.90;5.80;;;;;;;1.53;100.00;100579.56;1719101;82;21617;-58
2022/12/25 23:32:49;;;;;;;6.70;6.00;;;;;;;1.55;100.00;100583.08;1715857;82;21094;-59
2022/12/25 23:35:15;;;;;;;6.97;5.30;;;;;;;1.56;100.00;100588.39;1719141;81;21818;-60
2022/12/25 23:37:41;;;;;;;8.87;5.87;;;;;;;1.56;100.00;100591.48;1711733;82;22004;-59
2022/12/25 23:40:09;;;;;;;6.27;5.67;;;;;;;1.57;100.00;100595.91;1713099;82;21221;-59
2022/12/25 23:42:36;;;;;;;5.57;4.93;;;;;;;1.55;100.00;100596.34;1722370;82;21844;-59
2022/12/25 23:45:03;;;;;;;6.63;5.93;;;;;;;1.50;100.00;100601.22;1714617;82;21203;-59
2022/12/25 23:47:30;;;;;;;10.40;6.73;;;;;;;1.44;100.00;100599.89;1710704;82;21846;-58
2022/12/25 23:49:56;;;;;;;7.73;6.93;;;;;;;1.41;100.00;100601.20;1716443;82;21088;-59
2022/12/25 23:52:23;;;;;;;7.90;6.80;;;;;;;1.39;100.00;100602.07;1717229;82;21535;-58
2022/12/25 23:54:49;;;;;;;8.07;6.07;;;;;;;1.38;100.00;100609.14;1720121;82;21519;-59
2022/12/25 23:57:16;;;;;;;7.40;5.67;;;;;;;1.40;100.00;100598.54;1716115;82;21018;-59
2022/12/25 23:59:43;;;;;;;8.17;6.60;;;;;;;1.41;100.00;100596.34;1711600;82;22770;-58
